sensor_id;sensor_type;location;lat;lon;timestamp;pressure;altitude;pressure_sealevel;temperature;humidity
61506;BME280;47366;51.916;4.574;2023-08-12T00:00:48;101815.16;;;20.45;84.51
61506;BME280;47366;51.916;4.574;2023-08-12T00:03:13;101813.13;;;20.47;83.89
61506;BME280;47366;51.916;4.574;2023-08-12T00:05:39;101817.38;;;20.51;84.22
61506;BME280;47366;51.916;4.574;2023-08-12T00:08:05;101806.38;;;20.51;84.05
61506;BME280;47366;51.916;4.574;2023-08-12T00:10:31;101798.38;;;20.48;84.34
61506;BME280;47366;51.916;4.574;2023-08-12T00:12:56;101796.78;;;20.45;84.84
61506;BME280;47366;51.916;4.574;2023-08-12T00:15:22;101793.88;;;20.47;84.27
61506;BME280;47366;51.916;4.574;2023-08-12T00:17:47;101802.28;;;20.45;84.22
61506;BME280;47366;51.916;4.574;2023-08-12T00:20:13;101801.88;;;20.50;84.37
61506;BME280;47366;51.916;4.574;2023-08-12T00:22:39;101797.38;;;20.49;84.11
61506;BME280;47366;51.916;4.574;2023-08-12T00:25:06;101801.13;;;20.48;85.32
61506;BME280;47366;51.916;4.574;2023-08-12T00:27:31;101791.28;;;20.45;84.08
61506;BME280;47366;51.916;4.574;2023-08-12T00:29:57;101782.28;;;20.43;84.54
61506;BME280;47366;51.916;4.574;2023-08-12T00:32:22;101785.63;;;20.47;84.15
61506;BME280;47366;51.916;4.574;2023-08-12T00:34:47;101774.88;;;20.44;84.23
61506;BME280;47366;51.916;4.574;2023-08-12T00:37:13;101779.38;;;20.45;84.52
61506;BME280;47366;51.916;4.574;2023-08-12T00:39:38;101777.50;;;20.45;85.68
61506;BME280;47366;51.916;4.574;2023-08-12T00:42:04;101770.53;;;20.41;84.93
61506;BME280;47366;51.916;4.574;2023-08-12T00:44:29;101776.50;;;20.46;84.56
61506;BME280;47366;51.916;4.574;2023-08-12T00:46:54;101775.47;;;20.47;84.40
61506;BME280;47366;51.916;4.574;2023-08-12T00:49:21;101759.97;;;20.46;84.48
61506;BME280;47366;51.916;4.574;2023-08-12T00:51:48;101761.13;;;20.44;84.70
61506;BME280;47366;51.916;4.574;2023-08-12T00:54:15;101757.63;;;20.42;84.62
61506;BME280;47366;51.916;4.574;2023-08-12T00:56:42;101755.75;;;20.42;84.52
61506;BME280;47366;51.916;4.574;2023-08-12T00:59:08;101762.72;;;20.46;84.53
61506;BME280;47366;51.916;4.574;2023-08-12T01:01:35;101763.88;;;20.44;85.44
61506;BME280;47366;51.916;4.574;2023-08-12T01:04:00;101752.25;;;20.40;85.68
61506;BME280;47366;51.916;4.574;2023-08-12T01:06:26;101762.69;;;20.36;86.25
61506;BME280;47366;51.916;4.574;2023-08-12T01:08:52;101755.16;;;20.39;86.14
61506;BME280;47366;51.916;4.574;2023-08-12T01:14:01;101746.03;;;20.38;86.30
61506;BME280;47366;51.916;4.574;2023-08-12T01:16:30;101742.38;;;20.37;86.91
61506;BME280;47366;51.916;4.574;2023-08-12T01:18:58;101744.16;;;20.39;86.73
61506;BME280;47366;51.916;4.574;2023-08-12T01:21:28;101738.50;;;20.40;86.39
61506;BME280;47366;51.916;4.574;2023-08-12T01:23:54;101737.38;;;20.43;86.75
61506;BME280;47366;51.916;4.574;2023-08-12T01:26:20;101726.38;;;20.43;86.12
61506;BME280;47366;51.916;4.574;2023-08-12T01:28:46;101731.88;;;20.43;86.29
61506;BME280;47366;51.916;4.574;2023-08-12T01:31:16;101727.97;;;20.45;85.62
61506;BME280;47366;51.916;4.574;2023-08-12T01:33:54;101720.88;;;20.43;86.25
61506;BME280;47366;51.916;4.574;2023-08-12T01:36:24;101718.09;;;20.43;85.90
61506;BME280;47366;51.916;4.574;2023-08-12T01:38:54;101724.06;;;20.48;86.04
61506;BME280;47366;51.916;4.574;2023-08-12T01:41:22;101719.72;;;20.45;86.88
61506;BME280;47366;51.916;4.574;2023-08-12T01:43:48;101724.31;;;20.45;86.82
61506;BME280;47366;51.916;4.574;2023-08-12T01:46:13;101716.22;;;20.43;86.91
61506;BME280;47366;51.916;4.574;2023-08-12T01:48:39;101706.09;;;20.44;86.96
61506;BME280;47366;51.916;4.574;2023-08-12T01:51:05;101709.56;;;20.46;87.01
61506;BME280;47366;51.916;4.574;2023-08-12T01:53:31;101714.22;;;20.45;87.50
61506;BME280;47366;51.916;4.574;2023-08-12T01:55:56;101710.44;;;20.46;86.80
61506;BME280;47366;51.916;4.574;2023-08-12T01:58:21;101703.19;;;20.45;86.74
61506;BME280;47366;51.916;4.574;2023-08-12T02:00:47;101700.69;;;20.42;86.75
61506;BME280;47366;51.916;4.574;2023-08-12T02:03:12;101698.56;;;20.46;86.60
61506;BME280;47366;51.916;4.574;2023-08-12T02:05:37;101710.31;;;20.48;86.55
61506;BME280;47366;51.916;4.574;2023-08-12T02:08:04;101698.69;;;20.44;87.13
61506;BME280;47366;51.916;4.574;2023-08-12T02:10:29;101693.91;;;20.46;86.60
61506;BME280;47366;51.916;4.574;2023-08-12T02:12:55;101696.53;;;20.48;87.38
61506;BME280;47366;51.916;4.574;2023-08-12T02:15:20;101697.81;;;20.44;87.31
61506;BME280;47366;51.916;4.574;2023-08-12T02:17:46;101698.97;;;20.41;87.53
61506;BME280;47366;51.916;4.574;2023-08-12T02:20:11;101700.56;;;20.44;88.01
61506;BME280;47366;51.916;4.574;2023-08-12T02:22:36;101698.97;;;20.41;88.36
61506;BME280;47366;51.916;4.574;2023-08-12T02:25:02;101690.72;;;20.41;88.10
61506;BME280;47366;51.916;4.574;2023-08-12T02:27:27;101684.59;;;20.37;87.75
61506;BME280;47366;51.916;4.574;2023-08-12T02:29:53;101686.19;;;20.40;88.58
61506;BME280;47366;51.916;4.574;2023-08-12T02:32:18;101688.94;;;20.40;88.78
61506;BME280;47366;51.916;4.574;2023-08-12T02:34:43;101684.75;;;20.36;89.85
61506;BME280;47366;51.916;4.574;2023-08-12T02:37:09;101684.59;;;20.37;90.13
61506;BME280;47366;51.916;4.574;2023-08-12T02:39:35;101668.78;;;20.30;90.01
61506;BME280;47366;51.916;4.574;2023-08-12T02:42:00;101678.63;;;20.32;90.15
61506;BME280;47366;51.916;4.574;2023-08-12T02:44:25;101678.50;;;20.34;89.79
61506;BME280;47366;51.916;4.574;2023-08-12T02:46:51;101666.78;;;20.32;89.28
61506;BME280;47366;51.916;4.574;2023-08-12T02:49:16;101664.88;;;20.32;89.94
61506;BME280;47366;51.916;4.574;2023-08-12T02:51:41;101663.16;;;20.31;90.33
61506;BME280;47366;51.916;4.574;2023-08-12T02:54:07;101667.63;;;20.32;91.81
61506;BME280;47366;51.916;4.574;2023-08-12T02:56:32;101656.78;;;20.31;90.48
61506;BME280;47366;51.916;4.574;2023-08-12T02:58:57;101658.81;;;20.29;92.64
61506;BME280;47366;51.916;4.574;2023-08-12T03:01:23;101649.19;;;20.23;91.70
61506;BME280;47366;51.916;4.574;2023-08-12T03:03:50;101656.47;;;20.24;92.36
61506;BME280;47366;51.916;4.574;2023-08-12T03:06:15;101651.81;;;20.25;92.12
61506;BME280;47366;51.916;4.574;2023-08-12T03:08:40;101654.44;;;20.26;92.06
61506;BME280;47366;51.916;4.574;2023-08-12T03:11:06;101642.41;;;20.27;91.73
61506;BME280;47366;51.916;4.574;2023-08-12T03:13:31;101644.16;;;20.28;91.30
61506;BME280;47366;51.916;4.574;2023-08-12T03:15:57;101635.88;;;20.28;91.82
61506;BME280;47366;51.916;4.574;2023-08-12T03:18:22;101637.66;;;20.29;92.20
61506;BME280;47366;51.916;4.574;2023-08-12T03:20:48;101616.06;;;20.25;93.09
61506;BME280;47366;51.916;4.574;2023-08-12T03:23:14;101612.88;;;20.29;92.06
61506;BME280;47366;51.916;4.574;2023-08-12T03:25:39;101610.25;;;20.28;91.29
61506;BME280;47366;51.916;4.574;2023-08-12T03:28:05;101619.38;;;20.28;91.57
61506;BME280;47366;51.916;4.574;2023-08-12T03:30:30;101615.94;;;20.26;91.03
61506;BME280;47366;51.916;4.574;2023-08-12T03:32:56;101627.19;;;20.23;94.22
61506;BME280;47366;51.916;4.574;2023-08-12T03:35:22;101638.47;;;20.20;93.36
61506;BME280;47366;51.916;4.574;2023-08-12T03:37:47;101635.59;;;20.22;93.14
61506;BME280;47366;51.916;4.574;2023-08-12T03:40:12;101625.41;;;20.12;93.49
61506;BME280;47366;51.916;4.574;2023-08-12T03:42:38;101626.16;;;20.14;94.09
61506;BME280;47366;51.916;4.574;2023-08-12T03:45:04;101626.16;;;20.14;95.35
61506;BME280;47366;51.916;4.574;2023-08-12T03:47:29;101611.22;;;20.07;95.50
61506;BME280;47366;51.916;4.574;2023-08-12T03:49:55;101610.81;;;20.12;95.08
61506;BME280;47366;51.916;4.574;2023-08-12T03:52:20;101607.31;;;20.10;95.24
61506;BME280;47366;51.916;4.574;2023-08-12T03:54:46;101611.50;;;20.14;93.87
61506;BME280;47366;51.916;4.574;2023-08-12T03:57:11;101608.75;;;20.14;95.23
61506;BME280;47366;51.916;4.574;2023-08-12T03:59:37;101593.56;;;20.10;95.03
61506;BME280;47366;51.916;4.574;2023-08-12T04:02:02;101595.28;;;20.11;94.49
61506;BME280;47366;51.916;4.574;2023-08-12T04:04:29;101590.66;;;20.11;95.84
61506;BME280;47366;51.916;4.574;2023-08-12T04:06:54;101589.03;;;20.09;95.86
61506;BME280;47366;51.916;4.574;2023-08-12T04:09:20;101578.78;;;20.11;96.20
61506;BME280;47366;51.916;4.574;2023-08-12T04:11:46;101588.06;;;20.10;95.83
61506;BME280;47366;51.916;4.574;2023-08-12T04:14:14;101579.19;;;20.06;95.13
61506;BME280;47366;51.916;4.574;2023-08-12T04:16:40;101575.16;;;20.10;95.27
61506;BME280;47366;51.916;4.574;2023-08-12T04:19:05;101565.44;;;20.06;94.86
61506;BME280;47366;51.916;4.574;2023-08-12T04:21:31;101565.03;;;20.11;95.88
61506;BME280;47366;51.916;4.574;2023-08-12T04:23:56;101559.53;;;20.11;94.64
61506;BME280;47366;51.916;4.574;2023-08-12T04:26:21;101546.19;;;20.06;95.45
61506;BME280;47366;51.916;4.574;2023-08-12T04:28:47;101547.78;;;20.09;95.64
61506;BME280;47366;51.916;4.574;2023-08-12T04:31:12;101540.56;;;20.08;95.89
61506;BME280;47366;51.916;4.574;2023-08-12T04:33:37;101554.19;;;20.09;95.05
61506;BME280;47366;51.916;4.574;2023-08-12T04:36:03;101546.78;;;20.10;94.92
61506;BME280;47366;51.916;4.574;2023-08-12T04:38:28;101547.94;;;20.07;97.12
61506;BME280;47366;51.916;4.574;2023-08-12T04:40:54;101548.81;;;20.08;95.18
61506;BME280;47366;51.916;4.574;2023-08-12T04:43:21;101543.31;;;20.08;95.00
61506;BME280;47366;51.916;4.574;2023-08-12T04:45:47;101540.69;;;20.06;94.70
61506;BME280;47366;51.916;4.574;2023-08-12T04:48:12;101543.03;;;20.11;95.06
61506;BME280;47366;51.916;4.574;2023-08-12T04:50:38;101549.56;;;20.10;95.77
61506;BME280;47366;51.916;4.574;2023-08-12T04:53:07;101544.78;;;20.12;95.47
61506;BME280;47366;51.916;4.574;2023-08-12T04:55:34;101538.38;;;20.11;95.58
61506;BME280;47366;51.916;4.574;2023-08-12T04:57:59;101544.50;;;20.15;95.29
61506;BME280;47366;51.916;4.574;2023-08-12T05:00:25;101535.06;;;20.08;95.27
61506;BME280;47366;51.916;4.574;2023-08-12T05:02:50;101541.56;;;20.07;97.63
61506;BME280;47366;51.916;4.574;2023-08-12T05:05:16;101533.47;;;20.05;95.55
61506;BME280;47366;51.916;4.574;2023-08-12T05:07:41;101529.84;;;20.05;96.14
61506;BME280;47366;51.916;4.574;2023-08-12T05:10:07;101535.06;;;20.08;96.30
61506;BME280;47366;51.916;4.574;2023-08-12T05:12:32;101526.94;;;20.06;94.93
61506;BME280;47366;51.916;4.574;2023-08-12T05:14:58;101536.06;;;20.07;96.35
61506;BME280;47366;51.916;4.574;2023-08-12T05:17:23;101543.31;;;20.08;96.04
61506;BME280;47366;51.916;4.574;2023-08-12T05:19:48;101536.34;;;20.04;96.15
61506;BME280;47366;51.916;4.574;2023-08-12T05:22:14;101536.50;;;20.02;95.49
61506;BME280;47366;51.916;4.574;2023-08-12T05:24:39;101546.59;;;20.02;96.71
61506;BME280;47366;51.916;4.574;2023-08-12T05:27:04;101547.50;;;20.02;96.60
61506;BME280;47366;51.916;4.574;2023-08-12T05:29:32;101556.75;;;20.01;96.40
61506;BME280;47366;51.916;4.574;2023-08-12T05:31:58;101565.72;;;20.03;97.14
61506;BME280;47366;51.916;4.574;2023-08-12T05:34:23;101574.09;;;20.02;98.05
61506;BME280;47366;51.916;4.574;2023-08-12T05:36:48;101567.16;;;19.98;98.64
61506;BME280;47366;51.916;4.574;2023-08-12T05:39:14;101569.44;;;19.92;98.92
61506;BME280;47366;51.916;4.574;2023-08-12T05:41:40;101570.75;;;19.88;99.82
61506;BME280;47366;51.916;4.574;2023-08-12T05:44:06;101548.28;;;19.83;100.00
61506;BME280;47366;51.916;4.574;2023-08-12T05:46:31;101540.16;;;19.82;99.23
61506;BME280;47366;51.916;4.574;2023-08-12T05:48:57;101556.38;;;19.85;99.24
61506;BME280;47366;51.916;4.574;2023-08-12T05:51:22;101546.81;;;19.79;99.21
61506;BME280;47366;51.916;4.574;2023-08-12T05:53:48;101553.78;;;19.83;98.74
61506;BME280;47366;51.916;4.574;2023-08-12T05:56:13;101552.19;;;19.81;100.00
61506;BME280;47366;51.916;4.574;2023-08-12T05:58:39;101548.81;;;19.77;99.78
61506;BME280;47366;51.916;4.574;2023-08-12T06:01:04;101537.53;;;19.80;98.93
61506;BME280;47366;51.916;4.574;2023-08-12T06:03:29;101540.75;;;19.85;99.52
61506;BME280;47366;51.916;4.574;2023-08-12T06:05:55;101550.00;;;19.84;98.66
61506;BME280;47366;51.916;4.574;2023-08-12T06:08:20;101546.41;;;19.84;98.49
61506;BME280;47366;51.916;4.574;2023-08-12T06:10:46;101549.47;;;19.90;99.01
61506;BME280;47366;51.916;4.574;2023-08-12T06:13:11;101539.88;;;19.85;98.87
61506;BME280;47366;51.916;4.574;2023-08-12T06:15:36;101541.06;;;19.92;98.33
61506;BME280;47366;51.916;4.574;2023-08-12T06:18:02;101554.56;;;19.95;97.51
61506;BME280;47366;51.916;4.574;2023-08-12T06:20:27;101546.44;;;19.93;98.14
61506;BME280;47366;51.916;4.574;2023-08-12T06:22:53;101540.66;;;19.97;98.14
61506;BME280;47366;51.916;4.574;2023-08-12T06:25:18;101540.19;;;19.91;97.61
61506;BME280;47366;51.916;4.574;2023-08-12T06:27:45;101541.69;;;19.96;98.56
61506;BME280;47366;51.916;4.574;2023-08-12T06:30:12;101540.19;;;19.91;97.54
61506;BME280;47366;51.916;4.574;2023-08-12T06:32:37;101538.19;;;19.93;98.25
61506;BME280;47366;51.916;4.574;2023-08-12T06:35:03;101529.06;;;19.93;97.91
61506;BME280;47366;51.916;4.574;2023-08-12T06:37:29;101533.84;;;19.91;98.48
61506;BME280;47366;51.916;4.574;2023-08-12T06:39:54;101535.25;;;19.85;99.03
61506;BME280;47366;51.916;4.574;2023-08-12T06:42:21;101536.13;;;19.86;98.75
61506;BME280;47366;51.916;4.574;2023-08-12T06:44:49;101523.38;;;19.85;99.00
61506;BME280;47366;51.916;4.574;2023-08-12T06:47:15;101528.63;;;19.88;98.83
61506;BME280;47366;51.916;4.574;2023-08-12T06:49:40;101532.97;;;19.90;99.92
61506;BME280;47366;51.916;4.574;2023-08-12T06:52:05;101539.47;;;19.89;98.64
61506;BME280;47366;51.916;4.574;2023-08-12T06:54:31;101527.47;;;19.90;98.79
61506;BME280;47366;51.916;4.574;2023-08-12T06:56:56;101537.16;;;19.94;98.79
61506;BME280;47366;51.916;4.574;2023-08-12T06:59:22;101540.53;;;19.98;98.38
61506;BME280;47366;51.916;4.574;2023-08-12T07:01:47;101537.16;;;19.94;99.62
61506;BME280;47366;51.916;4.574;2023-08-12T07:04:12;101549.47;;;19.90;99.75
61506;BME280;47366;51.916;4.574;2023-08-12T07:06:38;101534.72;;;19.91;98.82
61506;BME280;47366;51.916;4.574;2023-08-12T07:09:03;101529.19;;;19.91;98.74
61506;BME280;47366;51.916;4.574;2023-08-12T07:11:28;101538.78;;;19.97;99.26
61506;BME280;47366;51.916;4.574;2023-08-12T07:13:54;101535.31;;;19.95;99.00
61506;BME280;47366;51.916;4.574;2023-08-12T07:16:19;101538.19;;;19.93;99.70
61506;BME280;47366;51.916;4.574;2023-08-12T07:18:44;101545.69;;;19.91;100.00
61506;BME280;47366;51.916;4.574;2023-08-12T07:21:10;101555.97;;;19.89;100.00
61506;BME280;47366;51.916;4.574;2023-08-12T07:23:35;101558.53;;;19.81;99.97
61506;BME280;47366;51.916;4.574;2023-08-12T07:26:01;101571.22;;;19.72;97.32
61506;BME280;47366;51.916;4.574;2023-08-12T07:28:26;101558.41;;;19.62;96.90
61506;BME280;47366;51.916;4.574;2023-08-12T07:30:51;101554.19;;;19.58;96.52
61506;BME280;47366;51.916;4.574;2023-08-12T07:33:17;101560.38;;;19.50;96.12
61506;BME280;47366;51.916;4.574;2023-08-12T07:35:43;101557.47;;;19.51;96.79
61506;BME280;47366;51.916;4.574;2023-08-12T07:38:08;101564.09;;;19.49;96.52
61506;BME280;47366;51.916;4.574;2023-08-12T07:40:34;101560.03;;;19.43;95.93
61506;BME280;47366;51.916;4.574;2023-08-12T07:42:59;101557.47;;;19.30;95.43
61506;BME280;47366;51.916;4.574;2023-08-12T07:45:24;101570.56;;;19.38;95.36
61506;BME280;47366;51.916;4.574;2023-08-12T07:47:50;101564.44;;;19.35;95.37
61506;BME280;47366;51.916;4.574;2023-08-12T07:50:15;101580.47;;;19.29;94.63
61506;BME280;47366;51.916;4.574;2023-08-12T07:52:41;101567.19;;;19.14;94.97
61506;BME280;47366;51.916;4.574;2023-08-12T07:55:06;101585.03;;;19.19;94.62
61506;BME280;47366;51.916;4.574;2023-08-12T07:57:32;101582.78;;;19.13;94.57
61506;BME280;47366;51.916;4.574;2023-08-12T07:59:57;101603.63;;;19.16;94.13
61506;BME280;47366;51.916;4.574;2023-08-12T08:02:23;101599.91;;;19.17;94.42
61506;BME280;47366;51.916;4.574;2023-08-12T08:04:48;101596.25;;;19.16;94.39
61506;BME280;47366;51.916;4.574;2023-08-12T08:07:15;101601.75;;;19.16;94.65
61506;BME280;47366;51.916;4.574;2023-08-12T08:09:41;101595.53;;;19.14;94.89
61506;BME280;47366;51.916;4.574;2023-08-12T08:12:07;101587.88;;;19.18;94.42
61506;BME280;47366;51.916;4.574;2023-08-12T08:14:33;101568.72;;;19.06;94.64
61506;BME280;47366;51.916;4.574;2023-08-12T08:16:58;101570.19;;;19.10;94.98
61506;BME280;47366;51.916;4.574;2023-08-12T08:19:23;101589.91;;;19.16;94.55
61506;BME280;47366;51.916;4.574;2023-08-12T08:21:49;101587.78;;;19.19;94.34
61506;BME280;47366;51.916;4.574;2023-08-12T08:24:14;101572.44;;;19.17;93.96
61506;BME280;47366;51.916;4.574;2023-08-12T08:26:39;101584.41;;;19.16;94.40
61506;BME280;47366;51.916;4.574;2023-08-12T08:29:10;101599.22;;;19.24;94.05
61506;BME280;47366;51.916;4.574;2023-08-12T08:31:36;101593.50;;;19.16;94.22
61506;BME280;47366;51.916;4.574;2023-08-12T08:34:01;101588.34;;;19.23;93.95
61506;BME280;47366;51.916;4.574;2023-08-12T08:36:26;101588.22;;;19.24;93.64
61506;BME280;47366;51.916;4.574;2023-08-12T08:38:52;101592.31;;;19.30;93.92
61506;BME280;47366;51.916;4.574;2023-08-12T08:41:17;101588.03;;;19.37;92.99
61506;BME280;47366;51.916;4.574;2023-08-12T08:43:43;101580.75;;;19.47;92.61
61506;BME280;47366;51.916;4.574;2023-08-12T08:46:14;101581.47;;;19.70;92.59
61506;BME280;47366;51.916;4.574;2023-08-12T08:48:41;101573.91;;;19.84;92.40
61506;BME280;47366;51.916;4.574;2023-08-12T08:51:08;101568.34;;;20.05;91.83
61506;BME280;47366;51.916;4.574;2023-08-12T08:53:37;101566.91;;;20.10;91.39
61506;BME280;47366;51.916;4.574;2023-08-12T08:56:05;101563.81;;;20.34;91.27
61506;BME280;47366;51.916;4.574;2023-08-12T08:58:30;101568.25;;;20.76;90.90
61506;BME280;47366;51.916;4.574;2023-08-12T09:00:56;101561.75;;;20.87;88.92
61506;BME280;47366;51.916;4.574;2023-08-12T09:03:21;101570.31;;;21.23;88.37
61506;BME280;47366;51.916;4.574;2023-08-12T09:05:47;101574.50;;;21.46;86.96
61506;BME280;47366;51.916;4.574;2023-08-12T09:08:13;101576.91;;;21.69;86.94
61506;BME280;47366;51.916;4.574;2023-08-12T09:10:39;101579.19;;;21.83;85.33
61506;BME280;47366;51.916;4.574;2023-08-12T09:13:08;101586.09;;;22.06;84.54
61506;BME280;47366;51.916;4.574;2023-08-12T09:15:34;101596.06;;;22.17;84.48
61506;BME280;47366;51.916;4.574;2023-08-12T09:17:59;101600.75;;;22.44;83.55
61506;BME280;47366;51.916;4.574;2023-08-12T09:20:25;101602.50;;;22.45;82.97
61506;BME280;47366;51.916;4.574;2023-08-12T09:22:57;101591.81;;;22.60;83.65
61506;BME280;47366;51.916;4.574;2023-08-12T09:25:23;101588.94;;;22.52;83.00
61506;BME280;47366;51.916;4.574;2023-08-12T09:27:48;101596.16;;;22.35;83.03
61506;BME280;47366;51.916;4.574;2023-08-12T09:30:14;101613.50;;;22.18;82.51
61506;BME280;47366;51.916;4.574;2023-08-12T09:32:39;101610.69;;;22.37;82.79
61506;BME280;47366;51.916;4.574;2023-08-12T09:35:05;101604.50;;;22.53;82.34
61506;BME280;47366;51.916;4.574;2023-08-12T09:37:31;101611.56;;;22.83;81.28
61506;BME280;47366;51.916;4.574;2023-08-12T09:39:57;101607.13;;;23.00;79.42
61506;BME280;47366;51.916;4.574;2023-08-12T09:42:23;101618.09;;;23.28;79.87
61506;BME280;47366;51.916;4.574;2023-08-12T09:44:48;101613.41;;;23.46;77.52
61506;BME280;47366;51.916;4.574;2023-08-12T09:47:14;101615.44;;;23.62;77.58
61506;BME280;47366;51.916;4.574;2023-08-12T09:49:39;101605.38;;;23.35;75.74
61506;BME280;47366;51.916;4.574;2023-08-12T09:52:06;101616.09;;;23.02;76.97
61506;BME280;47366;51.916;4.574;2023-08-12T09:54:32;101626.88;;;22.78;77.02
61506;BME280;47366;51.916;4.574;2023-08-12T09:56:59;101620.28;;;22.88;76.18
61506;BME280;47366;51.916;4.574;2023-08-12T09:59:33;101630.97;;;23.01;74.50
61506;BME280;47366;51.916;4.574;2023-08-12T10:02:01;101616.16;;;22.93;74.38
61506;BME280;47366;51.916;4.574;2023-08-12T10:04:37;101609.81;;;22.82;74.42
61506;BME280;47366;51.916;4.574;2023-08-12T10:07:05;101612.91;;;22.79;76.23
61506;BME280;47366;51.916;4.574;2023-08-12T10:09:32;101619.84;;;22.83;74.65
61506;BME280;47366;51.916;4.574;2023-08-12T10:11:58;101613.84;;;22.70;75.40
61506;BME280;47366;51.916;4.574;2023-08-12T10:14:25;101611.22;;;22.68;75.32
61506;BME280;47366;51.916;4.574;2023-08-12T10:16:52;101618.97;;;22.65;76.54
61506;BME280;47366;51.916;4.574;2023-08-12T10:19:19;101621.13;;;22.89;77.02
61506;BME280;47366;51.916;4.574;2023-08-12T10:21:48;101618.47;;;23.33;75.44
61506;BME280;47366;51.916;4.574;2023-08-12T10:24:14;101599.34;;;23.58;75.24
61506;BME280;47366;51.916;4.574;2023-08-12T10:26:42;101609.78;;;23.90;73.47
61506;BME280;47366;51.916;4.574;2023-08-12T10:29:08;101619.75;;;24.09;72.45
61506;BME280;47366;51.916;4.574;2023-08-12T10:31:34;101604.09;;;24.26;71.82
61506;BME280;47366;51.916;4.574;2023-08-12T10:33:59;101616.59;;;24.38;71.38
61506;BME280;47366;51.916;4.574;2023-08-12T10:36:26;101615.03;;;24.35;71.52
61506;BME280;47366;51.916;4.574;2023-08-12T10:38:52;101606.69;;;24.53;70.73
61506;BME280;47366;51.916;4.574;2023-08-12T10:41:22;101602.91;;;24.71;68.88
61506;BME280;47366;51.916;4.574;2023-08-12T10:44:01;101603.41;;;24.66;67.71
61506;BME280;47366;51.916;4.574;2023-08-12T10:46:36;101607.09;;;24.83;68.06
61506;BME280;47366;51.916;4.574;2023-08-12T10:49:10;101606.13;;;25.00;67.05
61506;BME280;47366;51.916;4.574;2023-08-12T10:51:53;101605.13;;;25.18;67.67
61506;BME280;47366;51.916;4.574;2023-08-12T10:54:26;101603.56;;;25.32;67.39
61506;BME280;47366;51.916;4.574;2023-08-12T10:59:47;101604.09;;;25.52;64.73
61506;BME280;47366;51.916;4.574;2023-08-12T11:02:30;101595.41;;;25.63;63.91
61506;BME280;47366;51.916;4.574;2023-08-12T11:10:12;101595.22;;;25.89;63.93
61506;BME280;47366;51.916;4.574;2023-08-12T11:12:39;101600.06;;;25.95;63.60
61506;BME280;47366;51.916;4.574;2023-08-12T11:15:05;101604.75;;;25.78;65.26
61506;BME280;47366;51.916;4.574;2023-08-12T11:17:39;101609.97;;;25.57;64.00
61506;BME280;47366;51.916;4.574;2023-08-12T11:20:07;101611.00;;;25.31;64.00
61506;BME280;47366;51.916;4.574;2023-08-12T11:22:36;101612.59;;;25.17;63.53
61506;BME280;47366;51.916;4.574;2023-08-12T11:25:04;101609.13;;;25.32;64.67
61506;BME280;47366;51.916;4.574;2023-08-12T11:27:40;101612.41;;;25.35;64.05
61506;BME280;47366;51.916;4.574;2023-08-12T11:30:07;101607.03;;;25.17;65.27
61506;BME280;47366;51.916;4.574;2023-08-12T11:32:34;101613.94;;;25.21;64.99
61506;BME280;47366;51.916;4.574;2023-08-12T11:34:59;101596.44;;;25.46;64.63
61506;BME280;47366;51.916;4.574;2023-08-12T11:37:25;101596.63;;;25.60;64.00
61506;BME280;47366;51.916;4.574;2023-08-12T11:39:53;101592.28;;;25.33;63.40
61506;BME280;47366;51.916;4.574;2023-08-12T11:42:18;101600.78;;;25.40;63.51
61506;BME280;47366;51.916;4.574;2023-08-12T11:44:44;101605.13;;;25.42;62.47
61506;BME280;47366;51.916;4.574;2023-08-12T11:47:09;101619.13;;;25.16;63.32
61506;BME280;47366;51.916;4.574;2023-08-12T11:49:34;101603.91;;;25.20;63.76
61506;BME280;47366;51.916;4.574;2023-08-12T11:52:00;101610.34;;;25.29;62.82
61506;BME280;47366;51.916;4.574;2023-08-12T11:54:25;101613.13;;;25.29;63.44
61506;BME280;47366;51.916;4.574;2023-08-12T11:56:51;101605.81;;;25.45;62.25
61506;BME280;47366;51.916;4.574;2023-08-12T11:59:17;101605.97;;;25.59;61.88
61506;BME280;47366;51.916;4.574;2023-08-12T12:01:46;101619.84;;;25.59;62.85
61506;BME280;47366;51.916;4.574;2023-08-12T12:04:14;101611.34;;;25.53;61.67
61506;BME280;47366;51.916;4.574;2023-08-12T12:06:39;101623.84;;;25.32;62.16
61506;BME280;47366;51.916;4.574;2023-08-12T12:09:07;101609.97;;;25.32;62.32
61506;BME280;47366;51.916;4.574;2023-08-12T12:11:36;101606.69;;;25.45;62.18
61506;BME280;47366;51.916;4.574;2023-08-12T12:14:05;101621.59;;;25.60;60.83
61506;BME280;47366;51.916;4.574;2023-08-12T12:16:43;101612.53;;;25.83;60.53
61506;BME280;47366;51.916;4.574;2023-08-12T12:19:19;101613.06;;;25.95;59.63
61506;BME280;47366;51.916;4.574;2023-08-12T12:21:48;101612.72;;;25.98;60.77
61506;BME280;47366;51.916;4.574;2023-08-12T12:24:14;101623.13;;;26.04;60.08
61506;BME280;47366;51.916;4.574;2023-08-12T12:26:39;101619.69;;;25.94;59.66
61506;BME280;47366;51.916;4.574;2023-08-12T12:29:05;101617.06;;;25.92;59.94
61506;BME280;47366;51.916;4.574;2023-08-12T12:31:35;101634.59;;;25.84;59.88
61506;BME280;47366;51.916;4.574;2023-08-12T12:34:02;101632.53;;;25.87;59.94
61506;BME280;47366;51.916;4.574;2023-08-12T12:36:29;101631.66;;;25.94;59.51
61506;BME280;47366;51.916;4.574;2023-08-12T12:38:55;101625.03;;;25.95;58.24
61506;BME280;47366;51.916;4.574;2023-08-12T12:41:20;101638.06;;;25.95;58.90
61506;BME280;47366;51.916;4.574;2023-08-12T12:43:46;101623.47;;;25.76;59.35
61506;BME280;47366;51.916;4.574;2023-08-12T12:46:11;101641.00;;;25.85;58.23
61506;BME280;47366;51.916;4.574;2023-08-12T12:48:37;101638.22;;;25.85;58.91
61506;BME280;47366;51.916;4.574;2023-08-12T12:51:02;101647.25;;;25.79;58.54
61506;BME280;47366;51.916;4.574;2023-08-12T12:53:28;101659.94;;;25.81;58.87
61506;BME280;47366;51.916;4.574;2023-08-12T12:55:53;101658.56;;;25.94;57.57